Hakuryoumaru No.15 — JD2439 — position and weather

sailwx.info

Track history (hours):
 
Tides and Currents Weather Stations Pressure Air Temp Water Temp Dewpoint Dewpoint Depression Visibility Wind Speed Wind Dir Waves Ship Positions

Hakuryoumaru No.15

Last reported at 2016-Jun-17 15:33 UTC. Time now 2016-Jun-25 07:08 UTC.
Position N 34°37' E 135°02'.

Length 80 m; draft 5.4 m.

Type: Tanker. MMSI: 431000243.

Date/timePositionNaut miles runAvg speedWind from/ knotsBaromVisibWave heightAir tempDewpointWater temp
2016-Jun-17 15:33N 34°37' E 135°02'10 9.4
2016-Jun-17 14:31N 34°27' E 135°03'1310.5
2016-Jun-17 13:18N 34°14' E 135°01'911.8
2016-Jun-17 12:33N 34°09' E 135°10'2 2.0
2016-Jun-17 11:33N 34°09' E 135°12'0 0.0
2016-Jun-17 10:33N 34°09' E 135°12'0 0.0
2016-Jun-17 09:33N 34°09' E 135°12'0 0.0
2016-Jun-17 08:33N 34°09' E 135°12'0 0.1
2016-Jun-17 07:34N 34°09' E 135°12'7 7.2
2016-Jun-17 06:33N 34°07' E 135°03'22 0.8
2016-Jun-16 04:33N 34°28' E 135°09'1212.0
2016-Jun-16 03:33N 34°36' E 135°20'5 5.0
2016-Jun-16 02:33N 34°39' E 135°25'0 0.0
2016-Jun-16 01:33N 34°39' E 135°25'0 0.0
2016-Jun-16 00:33N 34°39' E 135°25'0 0.0
2016-Jun-15 23:33N 34°39' E 135°25'1 1.0
2016-Jun-15 22:33N 34°39' E 135°24'8 3.8
2016-Jun-15 20:32N 34°31' E 135°24'0 0.0
2016-Jun-15 19:33N 34°31' E 135°24'0 0.0
2016-Jun-15 18:33N 34°31' E 135°24'0 0.0
2016-Jun-15 17:25N 34°31' E 135°24'0 0.0
2016-Jun-15 16:33N 34°31' E 135°24'0 0.0
2016-Jun-15 15:33N 34°31' E 135°24'0 0.0
2016-Jun-15 14:33N 34°31' E 135°24'0 0.0
2016-Jun-15 13:32N 34°31' E 135°24'0 0.0
2016-Jun-15 12:33N 34°31' E 135°24'0 0.0
2016-Jun-15 11:31N 34°31' E 135°24'0 0.0
2016-Jun-15 10:32N 34°31' E 135°24'0 0.0
2016-Jun-15 09:30N 34°31' E 135°24'0 0.0
2016-Jun-15 08:33N 34°31' E 135°24'0 0.1
2016-Jun-15 05:32N 34°31' E 135°24'1411.5
2016-Jun-15 04:16N 34°25' E 135°09'2 0.1
2016-Jun-14 05:33N 34°27' E 135°09'1312.1
2016-Jun-14 04:30N 34°32' E 135°23'1 1.3
2016-Jun-14 03:33N 34°32' E 135°24'0 0.0
2016-Jun-14 02:33N 34°32' E 135°24'0 0.0
2016-Jun-14 01:30N 34°32' E 135°24'0 0.0
2016-Jun-14 00:19N 34°32' E 135°24'0 0.0
2016-Jun-13 23:29N 34°32' E 135°24'4 3.8
2016-Jun-13 22:33N 34°32' E 135°20'0 0.0
2016-Jun-13 21:22N 34°32' E 135°20'0 0.0
2016-Jun-13 19:28N 34°32' E 135°20'0 0.0
2016-Jun-13 18:22N 34°32' E 135°20'0 0.0
2016-Jun-13 17:28N 34°32' E 135°20'0 0.0
2016-Jun-13 16:28N 34°32' E 135°20'0 0.0
2016-Jun-13 15:34N 34°32' E 135°20'0 0.0
2016-Jun-13 14:28N 34°32' E 135°20'0 0.0
2016-Jun-13 13:34N 34°32' E 135°20'0 0.0
2016-Jun-13 12:28N 34°32' E 135°20'0 0.0
2016-Jun-13 11:34N 34°32' E 135°20'0 0.0
2016-Jun-13 10:34N 34°32' E 135°20'3 3.0
2016-Jun-13 09:33N 34°33' E 135°17'1312.9
2016-Jun-13 08:32N 34°37' E 135°01'  
2016-Jun-10 09:07N 34°08' E 135°04'611.2
2016-Jun-10 08:33N 34°09' E 135°12'0 0.2
2016-Jun-10 07:33N 34°09' E 135°12'0 0.0
2016-Jun-10 06:33N 34°09' E 135°12'0 0.0
2016-Jun-10 05:33N 34°09' E 135°12'0 0.0
2016-Jun-10 04:32N 34°09' E 135°12'0 0.1
2016-Jun-10 03:33N 34°09' E 135°12'7 6.8
2016-Jun-10 02:33N 34°07' E 135°04'  
Track history (hours):
 
Tides and Currents Weather Stations Pressure Air Temp Water Temp Dewpoint Dewpoint Depression Visibility Wind Speed Wind Dir Waves Ship Positions

Hakuryoumaru No.15

Last reported at 2016-Jun-17 15:33 UTC. Time now 2016-Jun-25 07:08 UTC.
Position N 34°37' E 135°02'.

Length 80 m; draft 5.4 m.

Type: Tanker. MMSI: 431000243.

Date/timePositionNaut miles runAvg speedWind from/ knotsBaromVisibWave heightAir tempDewpointWater temp
2016-Jun-17 15:33N 34°37' E 135°02'10 9.4
2016-Jun-17 14:31N 34°27' E 135°03'1310.5
2016-Jun-17 13:18N 34°14' E 135°01'911.8
2016-Jun-17 12:33N 34°09' E 135°10'2 2.0
2016-Jun-17 11:33N 34°09' E 135°12'0 0.0
2016-Jun-17 10:33N 34°09' E 135°12'0 0.0
2016-Jun-17 09:33N 34°09' E 135°12'0 0.0
2016-Jun-17 08:33N 34°09' E 135°12'0 0.1
2016-Jun-17 07:34N 34°09' E 135°12'7 7.2
2016-Jun-17 06:33N 34°07' E 135°03'22 0.8
2016-Jun-16 04:33N 34°28' E 135°09'1212.0
2016-Jun-16 03:33N 34°36' E 135°20'5 5.0
2016-Jun-16 02:33N 34°39' E 135°25'0 0.0
2016-Jun-16 01:33N 34°39' E 135°25'0 0.0
2016-Jun-16 00:33N 34°39' E 135°25'0 0.0
2016-Jun-15 23:33N 34°39' E 135°25'1 1.0
2016-Jun-15 22:33N 34°39' E 135°24'8 3.8
2016-Jun-15 20:32N 34°31' E 135°24'0 0.0
2016-Jun-15 19:33N 34°31' E 135°24'0 0.0
2016-Jun-15 18:33N 34°31' E 135°24'0 0.0
2016-Jun-15 17:25N 34°31' E 135°24'0 0.0
2016-Jun-15 16:33N 34°31' E 135°24'0 0.0
2016-Jun-15 15:33N 34°31' E 135°24'0 0.0
2016-Jun-15 14:33N 34°31' E 135°24'0 0.0
2016-Jun-15 13:32N 34°31' E 135°24'0 0.0
2016-Jun-15 12:33N 34°31' E 135°24'0 0.0
2016-Jun-15 11:31N 34°31' E 135°24'0 0.0
2016-Jun-15 10:32N 34°31' E 135°24'0 0.0
2016-Jun-15 09:30N 34°31' E 135°24'0 0.0
2016-Jun-15 08:33N 34°31' E 135°24'0 0.1
2016-Jun-15 05:32N 34°31' E 135°24'1411.5
2016-Jun-15 04:16N 34°25' E 135°09'2 0.1
2016-Jun-14 05:33N 34°27' E 135°09'1312.1
2016-Jun-14 04:30N 34°32' E 135°23'1 1.3
2016-Jun-14 03:33N 34°32' E 135°24'0 0.0
2016-Jun-14 02:33N 34°32' E 135°24'0 0.0
2016-Jun-14 01:30N 34°32' E 135°24'0 0.0
2016-Jun-14 00:19N 34°32' E 135°24'0 0.0
2016-Jun-13 23:29N 34°32' E 135°24'4 3.8
2016-Jun-13 22:33N 34°32' E 135°20'0 0.0
2016-Jun-13 21:22N 34°32' E 135°20'0 0.0
2016-Jun-13 19:28N 34°32' E 135°20'0 0.0
2016-Jun-13 18:22N 34°32' E 135°20'0 0.0
2016-Jun-13 17:28N 34°32' E 135°20'0 0.0
2016-Jun-13 16:28N 34°32' E 135°20'0 0.0
2016-Jun-13 15:34N 34°32' E 135°20'0 0.0
2016-Jun-13 14:28N 34°32' E 135°20'0 0.0
2016-Jun-13 13:34N 34°32' E 135°20'0 0.0
2016-Jun-13 12:28N 34°32' E 135°20'0 0.0
2016-Jun-13 11:34N 34°32' E 135°20'0 0.0
2016-Jun-13 10:34N 34°32' E 135°20'3 3.0
2016-Jun-13 09:33N 34°33' E 135°17'1312.9
2016-Jun-13 08:32N 34°37' E 135°01'  
2016-Jun-10 09:07N 34°08' E 135°04'611.2
2016-Jun-10 08:33N 34°09' E 135°12'0 0.2
2016-Jun-10 07:33N 34°09' E 135°12'0 0.0
2016-Jun-10 06:33N 34°09' E 135°12'0 0.0
2016-Jun-10 05:33N 34°09' E 135°12'0 0.0
2016-Jun-10 04:32N 34°09' E 135°12'0 0.1
2016-Jun-10 03:33N 34°09' E 135°12'7 6.8
2016-Jun-10 02:33N 34°07' E 135°04'  

Dump ship's entire track history